PWSweather.com
Personal Weather Stations
Station Observations
WD4JKH
Forsyth, GA 31029

Forsyth, GA 31029

Lat: 33.033225, Lon: -83.927995

Elevation: 709

Station Type: Davis Vantage VUE

Latest ConditionsUpdated 2:38:14 AM EST Friday, Jan 19, 2018
Currently Today's Max Today's Min Today's Average
Temperature 31.8°F-0.1°C 32.9°F0.5°C 31.8°F-0.1°C 32.4°F0.2°C
Dew Point 14.3°F-9.8°C 14.3°F-9.8°C 13.5°F-10.3°C 13.9°F-10.1°C
Winds 3.3 mph W5.3 kmh W 4.5 mph WNW7.2 kmh WNW - 3.5 mph 5.6 kmh
Wind Gusts 10.0 mph16.1 kmh 10.0 mph16.1 kmh - -
Humidity 48% 48% 45% 46%
Pressure 30.35 in1027.8 mb 30.38 in1028.8 mb 30.35 in1027.8 mb -
Hour Temp Dew Point Humidity Winds Wind Gusts Pressure Precip Precip Rate Daily Precip Total
02:38 AM 31.8°F-0.1°C 14.3°F-9.8°C 48% 3.3 mph W5.3 kmh W 10.0 mph16.1 kmh 30.35 in1027.8 mb 0.00 in0.0 mm 0.00 in0.0 mm 0.00 in0.0 mm
02:33 AM 31.9°F-0.1°C 14.3°F-9.8°C 48% 2.4 mph W3.9 kmh W 10.0 mph16.1 kmh 30.35 in1027.8 mb 0.00 in0.0 mm 0.00 in0.0 mm 0.00 in0.0 mm
02:28 AM 32.0°F0.0°C 13.9°F-10.1°C 47% 3.9 mph WNW6.3 kmh WNW 10.0 mph16.1 kmh 30.35 in1027.8 mb 0.00 in0.0 mm 0.00 in0.0 mm 0.00 in0.0 mm
02:23 AM 31.9°F-0.1°C 13.9°F-10.1°C 47% 3.0 mph WNW4.8 kmh WNW 7.0 mph11.3 kmh 30.35 in1027.8 mb 0.00 in0.0 mm 0.00 in0.0 mm 0.00 in0.0 mm
02:18 AM 31.9°F-0.1°C 14.3°F-9.8°C 48% 4.2 mph WNW6.8 kmh WNW 8.0 mph12.9 kmh 30.35 in1027.8 mb 0.00 in0.0 mm 0.00 in0.0 mm 0.00 in0.0 mm
02:13 AM 32.0°F0.0°C 13.9°F-10.1°C 47% 2.6 mph WNW4.2 kmh WNW 8.0 mph12.9 kmh 30.35 in1027.8 mb 0.00 in0.0 mm 0.00 in0.0 mm 0.00 in0.0 mm
02:08 AM 32.1°F0.1°C 14.0°F-10.0°C 47% 3.2 mph W5.1 kmh W 8.0 mph12.9 kmh 30.35 in1027.8 mb 0.00 in0.0 mm 0.00 in0.0 mm 0.00 in0.0 mm
02:03 AM 32.3°F0.2°C 14.2°F-9.9°C 47% 2.8 mph W4.5 kmh W 8.0 mph12.9 kmh 30.35 in1027.8 mb 0.00 in0.0 mm 0.00 in0.0 mm 0.00 in0.0 mm
01:58 AM 32.3°F0.2°C 14.2°F-9.9°C 47% 3.4 mph WNW5.5 kmh WNW 9.0 mph14.5 kmh 30.35 in1027.8 mb 0.00 in0.0 mm 0.00 in0.0 mm 0.00 in0.0 mm
01:53 AM 32.3°F0.2°C 14.2°F-9.9°C 47% 4.2 mph W6.8 kmh W 9.0 mph14.5 kmh 30.35 in1027.8 mb 0.00 in0.0 mm 0.00 in0.0 mm 0.00 in0.0 mm
01:48 AM 32.3°F0.2°C 13.7°F-10.2°C 46% 4.3 mph WNW6.9 kmh WNW 9.0 mph14.5 kmh 30.35 in1027.8 mb 0.00 in0.0 mm 0.00 in0.0 mm 0.00 in0.0 mm
01:43 AM 32.3°F0.2°C 13.7°F-10.2°C 46% 4.3 mph WNW6.9 kmh WNW 9.0 mph14.5 kmh 30.35 in1027.8 mb 0.00 in0.0 mm 0.00 in0.0 mm 0.00 in0.0 mm
01:38 AM 32.4°F0.2°C 13.8°F-10.1°C 46% 4.0 mph WNW6.4 kmh WNW 9.0 mph14.5 kmh 30.35 in1027.8 mb 0.00 in0.0 mm 0.00 in0.0 mm 0.00 in0.0 mm
01:33 AM 32.4°F0.2°C 13.9°F-10.1°C 46% 3.5 mph WNW5.6 kmh WNW 9.0 mph14.5 kmh 30.35 in1027.8 mb 0.00 in0.0 mm 0.00 in0.0 mm 0.00 in0.0 mm
01:28 AM 32.5°F0.3°C 13.9°F-10.1°C 46% 3.6 mph WNW5.8 kmh WNW 7.0 mph11.3 kmh 30.36 in1028.1 mb 0.00 in0.0 mm 0.00 in0.0 mm 0.00 in0.0 mm
01:23 AM 32.5°F0.3°C 13.9°F-10.1°C 46% 3.9 mph WNW6.3 kmh WNW 9.0 mph14.5 kmh 30.35 in1027.8 mb 0.00 in0.0 mm 0.00 in0.0 mm 0.00 in0.0 mm
01:18 AM 32.6°F0.3°C 14.1°F-9.9°C 46% 2.3 mph WNW3.7 kmh WNW 10.0 mph16.1 kmh 30.35 in1027.8 mb 0.00 in0.0 mm 0.00 in0.0 mm 0.00 in0.0 mm
01:13 AM 32.7°F0.4°C 14.1°F-9.9°C 46% 2.9 mph W4.7 kmh W 10.0 mph16.1 kmh 30.36 in1028.1 mb 0.00 in0.0 mm 0.00 in0.0 mm 0.00 in0.0 mm
01:08 AM 32.7°F0.4°C 13.7°F-10.2°C 45% 3.8 mph W6.1 kmh W 10.0 mph16.1 kmh 30.36 in1028.1 mb 0.00 in0.0 mm 0.00 in0.0 mm 0.00 in0.0 mm
01:03 AM 32.6°F0.3°C 13.5°F-10.3°C 45% 4.5 mph WNW7.2 kmh WNW 10.0 mph16.1 kmh 30.36 in1028.1 mb 0.00 in0.0 mm 0.00 in0.0 mm 0.00 in0.0 mm
12:58 AM 32.5°F0.3°C 14.0°F-10.0°C 46% 4.4 mph WNW7.1 kmh WNW 9.0 mph14.5 kmh 30.36 in1028.1 mb 0.00 in0.0 mm 0.00 in0.0 mm 0.00 in0.0 mm
12:53 AM 32.4°F0.2°C 13.8°F-10.1°C 46% 4.3 mph WNW6.9 kmh WNW 8.0 mph12.9 kmh 30.36 in1028.1 mb 0.00 in0.0 mm 0.00 in0.0 mm 0.00 in0.0 mm
12:48 AM 32.3°F0.2°C 13.8°F-10.1°C 46% 4.2 mph W6.8 kmh W 8.0 mph12.9 kmh 30.36 in1028.1 mb 0.00 in0.0 mm 0.00 in0.0 mm 0.00 in0.0 mm
12:43 AM 32.3°F0.2°C 13.7°F-10.2°C 46% 3.2 mph W5.1 kmh W 7.0 mph11.3 kmh 30.37 in1028.4 mb 0.00 in0.0 mm 0.00 in0.0 mm 0.00 in0.0 mm
12:38 AM 32.3°F0.2°C 13.8°F-10.1°C 46% 2.9 mph W4.7 kmh W 7.0 mph11.3 kmh 30.37 in1028.4 mb 0.00 in0.0 mm 0.00 in0.0 mm 0.00 in0.0 mm
12:33 AM 32.4°F0.2°C 13.8°F-10.1°C 46% 3.3 mph W5.3 kmh W 6.0 mph9.7 kmh 30.38 in1028.8 mb 0.00 in0.0 mm 0.00 in0.0 mm 0.00 in0.0 mm
12:28 AM 32.4°F0.2°C 13.8°F-10.1°C 46% 3.6 mph W5.8 kmh W 7.0 mph11.3 kmh 30.38 in1028.8 mb 0.00 in0.0 mm 0.00 in0.0 mm 0.00 in0.0 mm
12:23 AM 32.5°F0.3°C 14.0°F-10.0°C 46% 2.0 mph W3.2 kmh W 9.0 mph14.5 kmh 30.38 in1028.8 mb 0.00 in0.0 mm 0.00 in0.0 mm 0.00 in0.0 mm
12:18 AM 32.7°F0.4°C 14.2°F-9.9°C 46% 2.8 mph W4.5 kmh W 9.0 mph14.5 kmh 30.38 in1028.8 mb 0.00 in0.0 mm 0.00 in0.0 mm 0.00 in0.0 mm
12:13 AM 32.9°F0.5°C 13.7°F-10.2°C 45% 3.8 mph W6.1 kmh W 9.0 mph14.5 kmh 30.38 in1028.8 mb 0.00 in0.0 mm 0.00 in0.0 mm 0.00 in0.0 mm
12:08 AM 32.9°F0.5°C 13.9°F-10.1°C 45% 4.2 mph W6.8 kmh W 9.0 mph14.5 kmh 30.38 in1028.8 mb 0.00 in0.0 mm 0.00 in0.0 mm 0.00 in0.0 mm
12:03 AM 32.8°F0.4°C 13.6°F-10.2°C 45% 3.3 mph WNW5.3 kmh WNW 9.0 mph14.5 kmh 30.38 in1028.8 mb 0.00 in0.0 mm 0.00 in0.0 mm 0.00 in0.0 mm